TAF Text Data
IDs:
Format:
Raw Decoded Include METAR

Data at: 0900 UTC 23 Jan 2019

METAR for:KTOB (Dodge Center Arpt, MN, US)
Text:KTOB 230856Z AUTO 34006KT 10SM CLR M12/M14 A2992 RMK AO2
Temperature:-12.0°C ( 10°F)
Dewpoint:-14.0°C ( 7°F) [RH = 85%]
Pressure (altimeter):29.92 inches Hg (1013.3 mb)
Winds:from the NNW (340 degrees) at 7 MPH (6 knots; 3.1 m/s)
Visibility:10 or more sm (16+ km)
Ceiling:at least 12,000 feet AGL
Clouds:sky clear below 12,000 feet AGL
QC Flag:automated observation with no human augmentation

TAF for:KTOB (Dodge Center Arpt, MN, US)
Text:No data found